Terminal Aerodrome Forecast
Issued by NWS Grand Forks, ND

Home | Current Version | Previous Version | Graphics & Text | Print | Product List | Glossary On
Versions: 1 2 3 4 5 6 7 8 9 10 11 12 13 14 15
000
FTUS43 KFGF 031000 AAA
TAFGFK
TAF AMD
KGFK 031023Z 0310/0406 32015G25KT P6SM OVC100
      TEMPO 0310/0312 5SM -SN OVC025
     FM031300 32023G30KT 4SM -SN OVC015=

USA.gov is the U.S. government's official web portal to all federal, state and local government web resources and services.